sensor_id;sensor_type;location;lat;lon;timestamp;pressure;altitude;pressure_sealevel;temperature;humidity
30682;BME280;17439;48.092;11.842;2023-01-29T00:01:51;96285.66;;;3.02;72.43
30682;BME280;17439;48.092;11.842;2023-01-29T00:04:18;96282.97;;;3.02;72.60
30682;BME280;17439;48.092;11.842;2023-01-29T00:06:44;96280.28;;;3.02;72.70
30682;BME280;17439;48.092;11.842;2023-01-29T00:09:11;96281.13;;;3.02;72.75
30682;BME280;17439;48.092;11.842;2023-01-29T00:11:39;96283.81;;;3.02;72.69
30682;BME280;17439;48.092;11.842;2023-01-29T00:14:05;96276.56;;;3.03;72.88
30682;BME280;17439;48.092;11.842;2023-01-29T00:16:32;96279.00;;;3.04;72.92
30682;BME280;17439;48.092;11.842;2023-01-29T00:19:00;96280.66;;;3.05;72.48
30682;BME280;17439;48.092;11.842;2023-01-29T00:21:27;96284.03;;;3.01;70.97
30682;BME280;17439;48.092;11.842;2023-01-29T00:23:54;96277.13;;;3.05;72.64
30682;BME280;17439;48.092;11.842;2023-01-29T00:26:20;96274.53;;;3.10;72.69
30682;BME280;17439;48.092;11.842;2023-01-29T00:28:47;96277.22;;;3.10;72.17
30682;BME280;17439;48.092;11.842;2023-01-29T00:31:19;96286.06;;;3.11;71.59
30682;BME280;17439;48.092;11.842;2023-01-29T00:33:47;96290.38;;;3.12;71.63
30682;BME280;17439;48.092;11.842;2023-01-29T00:36:16;96294.69;;;3.13;71.24
30682;BME280;17439;48.092;11.842;2023-01-29T00:38:43;96295.72;;;3.12;70.65
30682;BME280;17439;48.092;11.842;2023-01-29T00:41:12;96294.59;;;3.07;70.71
30682;BME280;17439;48.092;11.842;2023-01-29T00:43:39;96292.47;;;3.09;70.18
30682;BME280;17439;48.092;11.842;2023-01-29T00:46:06;96299.13;;;3.07;70.07
30682;BME280;17439;48.092;11.842;2023-01-29T00:48:33;96294.53;;;3.02;70.03
30682;BME280;17439;48.092;11.842;2023-01-29T00:51:00;96305.97;;;2.98;70.44
30682;BME280;17439;48.092;11.842;2023-01-29T00:53:27;96301.56;;;2.92;70.73
30682;BME280;17439;48.092;11.842;2023-01-29T00:55:55;96293.53;;;2.92;71.02
30682;BME280;17439;48.092;11.842;2023-01-29T00:58:22;96300.97;;;2.89;71.23
30682;BME280;17439;48.092;11.842;2023-01-29T01:00:49;96298.78;;;2.86;71.32
30682;BME280;17439;48.092;11.842;2023-01-29T01:03:16;96300.66;;;2.86;71.25
30682;BME280;17439;48.092;11.842;2023-01-29T01:05:43;96305.44;;;2.84;71.60
30682;BME280;17439;48.092;11.842;2023-01-29T01:08:09;96304.63;;;2.83;71.77
30682;BME280;17439;48.092;11.842;2023-01-29T01:10:36;96299.03;;;2.85;71.63
30682;BME280;17439;48.092;11.842;2023-01-29T01:13:05;96297.16;;;2.85;71.30
30682;BME280;17439;48.092;11.842;2023-01-29T01:15:38;96298.22;;;2.84;71.37
30682;BME280;17439;48.092;11.842;2023-01-29T01:18:05;96303.31;;;2.86;71.32
30682;BME280;17439;48.092;11.842;2023-01-29T01:20:33;96298.22;;;2.84;71.33
30682;BME280;17439;48.092;11.842;2023-01-29T01:23:01;96300.88;;;2.84;71.14
30682;BME280;17439;48.092;11.842;2023-01-29T01:25:27;96303.81;;;2.83;71.47
30682;BME280;17439;48.092;11.842;2023-01-29T01:27:55;96305.91;;;2.81;71.34
30682;BME280;17439;48.092;11.842;2023-01-29T01:30:23;96307.19;;;2.78;71.76
30682;BME280;17439;48.092;11.842;2023-01-29T01:32:50;96307.19;;;2.78;71.99
30682;BME280;17439;48.092;11.842;2023-01-29T01:35:17;96308.03;;;2.79;72.16
30682;BME280;17439;48.092;11.842;2023-01-29T01:37:44;96301.03;;;2.78;72.15
30682;BME280;17439;48.092;11.842;2023-01-29T01:40:14;96304.53;;;2.78;71.65
30682;BME280;17439;48.092;11.842;2023-01-29T01:42:42;96298.13;;;2.79;72.14
30682;BME280;17439;48.092;11.842;2023-01-29T01:45:36;96309.31;;;2.76;70.99
30682;BME280;17439;48.092;11.842;2023-01-29T01:50:40;96309.75;;;2.85;71.66
30682;BME280;17439;48.092;11.842;2023-01-29T01:53:14;96300.88;;;2.84;71.29
30682;BME280;17439;48.092;11.842;2023-01-29T01:55:47;96304.63;;;2.83;71.50
30682;BME280;17439;48.092;11.842;2023-01-29T01:58:21;96303.00;;;2.82;71.37
30682;BME280;17439;48.092;11.842;2023-01-29T02:00:48;96307.56;;;2.82;71.29
30682;BME280;17439;48.092;11.842;2023-01-29T02:03:16;96305.69;;;2.82;71.35
30682;BME280;17439;48.092;11.842;2023-01-29T02:05:47;96303.00;;;2.82;71.02
30682;BME280;17439;48.092;11.842;2023-01-29T02:08:17;96305.13;;;2.80;70.84
30682;BME280;17439;48.092;11.842;2023-01-29T02:10:47;96315.47;;;2.77;71.19
30682;BME280;17439;48.092;11.842;2023-01-29T02:13:15;96319.47;;;2.74;71.63
30682;BME280;17439;48.092;11.842;2023-01-29T02:15:42;96313.50;;;2.72;71.91
30682;BME280;17439;48.092;11.842;2023-01-29T02:18:08;96317.25;;;2.71;72.19
30682;BME280;17439;48.092;11.842;2023-01-29T02:20:36;96314.59;;;2.71;72.31
30682;BME280;17439;48.092;11.842;2023-01-29T02:26:18;96308.16;;;2.72;70.79
30682;BME280;17439;48.092;11.842;2023-01-29T02:29:01;96317.81;;;2.73;71.50
30682;BME280;17439;48.092;11.842;2023-01-29T02:31:43;96321.06;;;2.75;71.31
30682;BME280;17439;48.092;11.842;2023-01-29T02:34:24;96320.81;;;2.77;71.51
30682;BME280;17439;48.092;11.842;2023-01-29T02:36:59;96315.81;;;2.80;73.07
30682;BME280;17439;48.092;11.842;2023-01-29T02:39:36;96312.91;;;2.82;71.44
30682;BME280;17439;48.092;11.842;2023-01-29T02:42:26;96314.50;;;2.83;71.24
30682;BME280;17439;48.092;11.842;2023-01-29T02:47:58;96305.19;;;2.85;71.36
30682;BME280;17439;48.092;11.842;2023-01-29T02:53:19;96295.28;;;2.86;71.33
30682;BME280;17439;48.092;11.842;2023-01-29T02:56:01;96295.53;;;2.84;69.79
30682;BME280;17439;48.092;11.842;2023-01-29T02:58:32;96296.59;;;2.83;71.67
30682;BME280;17439;48.092;11.842;2023-01-29T03:01:08;96303.56;;;2.84;71.08
30682;BME280;17439;48.092;11.842;2023-01-29T03:03:42;96300.09;;;2.84;71.27
30682;BME280;17439;48.092;11.842;2023-01-29T03:06:19;96292.84;;;2.84;71.18
30682;BME280;17439;48.092;11.842;2023-01-29T03:08:53;96292.03;;;2.84;71.15
30682;BME280;17439;48.092;11.842;2023-01-29T03:11:22;96296.34;;;2.85;72.21
30682;BME280;17439;48.092;11.842;2023-01-29T03:13:58;96295.53;;;2.84;71.02
30682;BME280;17439;48.092;11.842;2023-01-29T03:16:34;96291.81;;;2.85;71.56
30682;BME280;17439;48.092;11.842;2023-01-29T03:19:08;96298.78;;;2.86;71.31
30682;BME280;17439;48.092;11.842;2023-01-29T03:21:40;96295.03;;;2.87;72.06
30682;BME280;17439;48.092;11.842;2023-01-29T03:24:11;96287.84;;;2.88;72.22
30682;BME280;17439;48.092;11.842;2023-01-29T03:26:40;96284.09;;;2.89;72.35
30682;BME280;17439;48.092;11.842;2023-01-29T03:29:09;96298.88;;;2.92;72.60
30682;BME280;17439;48.092;11.842;2023-01-29T03:31:45;96296.19;;;2.92;72.52
30682;BME280;17439;48.092;11.842;2023-01-29T03:34:15;96291.66;;;2.92;72.05
30682;BME280;17439;48.092;11.842;2023-01-29T03:37:15;96301.56;;;2.92;70.01
30682;BME280;17439;48.092;11.842;2023-01-29T03:39:43;96295.13;;;2.93;72.36
30682;BME280;17439;48.092;11.842;2023-01-29T03:42:18;96293.84;;;2.95;71.33
30682;BME280;17439;48.092;11.842;2023-01-29T03:45:04;96287.44;;;2.96;70.72
30682;BME280;17439;48.092;11.842;2023-01-29T03:47:53;96293.59;;;2.97;70.79
30682;BME280;17439;48.092;11.842;2023-01-29T03:50:36;96293.59;;;2.97;70.72
30682;BME280;17439;48.092;11.842;2023-01-29T03:56:07;96279.66;;;2.95;70.75
30682;BME280;17439;48.092;11.842;2023-01-29T03:58:42;96283.13;;;2.95;71.00
30682;BME280;17439;48.092;11.842;2023-01-29T04:01:20;96287.69;;;2.95;70.74
30682;BME280;17439;48.092;11.842;2023-01-29T04:03:55;96276.38;;;2.93;72.16
30682;BME280;17439;48.092;11.842;2023-01-29T04:06:28;96273.69;;;2.93;71.65
30682;BME280;17439;48.092;11.842;2023-01-29T04:09:14;96267.78;;;2.90;69.39
30682;BME280;17439;48.092;11.842;2023-01-29T04:11:47;96269.66;;;2.90;70.31
30682;BME280;17439;48.092;11.842;2023-01-29T04:14:15;96260.78;;;2.89;71.94
30682;BME280;17439;48.092;11.842;2023-01-29T04:16:50;96259.19;;;2.88;71.20
30682;BME280;17439;48.092;11.842;2023-01-29T04:19:21;96260.78;;;2.89;72.33
30682;BME280;17439;48.092;11.842;2023-01-29T04:21:52;96247.66;;;2.88;71.37
30682;BME280;17439;48.092;11.842;2023-01-29T04:24:25;96250.34;;;2.88;72.40
30682;BME280;17439;48.092;11.842;2023-01-29T04:27:03;96254.88;;;2.87;71.19
30682;BME280;17439;48.092;11.842;2023-01-29T04:35:16;96261.38;;;2.92;70.69
30682;BME280;17439;48.092;11.842;2023-01-29T04:43:07;96262.19;;;2.92;70.28
30682;BME280;17439;48.092;11.842;2023-01-29T04:48:29;96259.50;;;2.92;70.54
30682;BME280;17439;48.092;11.842;2023-01-29T04:51:09;96267.31;;;2.94;71.29
30682;BME280;17439;48.092;11.842;2023-01-29T04:56:40;96269.75;;;2.95;71.22
30682;BME280;17439;48.092;11.842;2023-01-29T04:59:15;96268.09;;;2.94;71.05
30682;BME280;17439;48.092;11.842;2023-01-29T05:01:43;96270.22;;;2.92;71.47
30682;BME280;17439;48.092;11.842;2023-01-29T05:04:13;96264.53;;;2.88;70.66
30682;BME280;17439;48.092;11.842;2023-01-29T05:06:42;96263.75;;;2.88;71.51
30682;BME280;17439;48.092;11.842;2023-01-29T05:09:09;96259.34;;;2.82;70.61
30682;BME280;17439;48.092;11.842;2023-01-29T05:11:38;96265.03;;;2.85;71.82
30682;BME280;17439;48.092;11.842;2023-01-29T05:14:08;96274.09;;;2.84;71.36
30682;BME280;17439;48.092;11.842;2023-01-29T05:16:40;96271.66;;;2.83;71.00
30682;BME280;17439;48.092;11.842;2023-01-29T05:19:09;96276.22;;;2.82;71.74
30682;BME280;17439;48.092;11.842;2023-01-29T05:21:38;96278.09;;;2.82;71.90
30682;BME280;17439;48.092;11.842;2023-01-29T05:24:13;96288.22;;;2.80;70.50
30682;BME280;17439;48.092;11.842;2023-01-29T05:26:42;96285.78;;;2.78;71.64
30682;BME280;17439;48.092;11.842;2023-01-29T05:29:09;96284.97;;;2.78;71.93
30682;BME280;17439;48.092;11.842;2023-01-29T05:31:36;96287.88;;;2.76;72.08
30682;BME280;17439;48.092;11.842;2023-01-29T05:34:02;96290.56;;;2.76;72.20
30682;BME280;17439;48.092;11.842;2023-01-29T05:36:29;96290.56;;;2.76;72.44
30682;BME280;17439;48.092;11.842;2023-01-29T05:38:56;96287.88;;;2.76;72.58
30682;BME280;17439;48.092;11.842;2023-01-29T05:41:22;96295.91;;;2.76;72.47
30682;BME280;17439;48.092;11.842;2023-01-29T05:43:49;96307.19;;;2.78;72.36
30682;BME280;17439;48.092;11.842;2023-01-29T05:46:15;96314.44;;;2.78;72.05
30682;BME280;17439;48.092;11.842;2023-01-29T05:48:42;96317.91;;;2.78;71.76
30682;BME280;17439;48.092;11.842;2023-01-29T05:51:08;96324.34;;;2.77;71.53
30682;BME280;17439;48.092;11.842;2023-01-29T05:53:35;96308.50;;;2.76;71.55
30682;BME280;17439;48.092;11.842;2023-01-29T05:56:03;96312.47;;;2.73;71.52
30682;BME280;17439;48.092;11.842;2023-01-29T05:58:31;96313.50;;;2.72;71.78
30682;BME280;17439;48.092;11.842;2023-01-29T06:01:10;96318.53;;;2.68;70.23
30682;BME280;17439;48.092;11.842;2023-01-29T06:03:37;96312.38;;;2.68;71.84
30682;BME280;17439;48.092;11.842;2023-01-29T06:06:03;96300.03;;;2.67;72.05
30682;BME280;17439;48.092;11.842;2023-01-29T06:08:30;96293.06;;;2.66;72.27
30682;BME280;17439;48.092;11.842;2023-01-29T06:10:57;96307.81;;;2.68;72.44
30682;BME280;17439;48.092;11.842;2023-01-29T06:13:23;96303.88;;;2.71;71.98
30682;BME280;17439;48.092;11.842;2023-01-29T06:15:50;96307.91;;;2.73;71.47
30682;BME280;17439;48.092;11.842;2023-01-29T06:18:16;96303.63;;;2.72;71.47
30682;BME280;17439;48.092;11.842;2023-01-29T06:20:43;96306.06;;;2.74;71.53
30682;BME280;17439;48.092;11.842;2023-01-29T06:23:10;96302.78;;;2.72;71.30
30682;BME280;17439;48.092;11.842;2023-01-29T06:25:36;96304.91;;;2.70;71.22
30682;BME280;17439;48.092;11.842;2023-01-29T06:28:03;96307.03;;;2.68;71.42
30682;BME280;17439;48.092;11.842;2023-01-29T06:30:29;96303.31;;;2.69;71.55
30682;BME280;17439;48.092;11.842;2023-01-29T06:32:57;96315.63;;;2.70;71.35
30682;BME280;17439;48.092;11.842;2023-01-29T06:35:24;96318.53;;;2.68;71.44
30682;BME280;17439;48.092;11.842;2023-01-29T06:37:51;96313.41;;;2.67;71.71
30682;BME280;17439;48.092;11.842;2023-01-29T06:40:18;96305.38;;;2.67;71.92
30682;BME280;17439;48.092;11.842;2023-01-29T06:42:45;96309.94;;;2.66;72.05
30682;BME280;17439;48.092;11.842;2023-01-29T06:45:12;96319.38;;;2.69;72.26
30682;BME280;17439;48.092;11.842;2023-01-29T06:47:39;96316.69;;;2.69;72.14
30682;BME280;17439;48.092;11.842;2023-01-29T06:50:05;96319.69;;;2.72;72.23
30682;BME280;17439;48.092;11.842;2023-01-29T06:52:32;96324.22;;;2.72;72.11
30682;BME280;17439;48.092;11.842;2023-01-29T06:54:58;96326.66;;;2.73;71.94
30682;BME280;17439;48.092;11.842;2023-01-29T06:57:27;96325.38;;;2.76;71.48
30682;BME280;17439;48.092;11.842;2023-01-29T06:59:54;96316.31;;;2.77;71.83
30682;BME280;17439;48.092;11.842;2023-01-29T07:02:21;96315.47;;;2.77;71.86
30682;BME280;17439;48.092;11.842;2023-01-29T07:04:47;96307.19;;;2.78;71.92
30682;BME280;17439;48.092;11.842;2023-01-29T07:07:14;96308.03;;;2.79;71.81
30682;BME280;17439;48.092;11.842;2023-01-29T07:09:41;96313.38;;;2.79;71.53
30682;BME280;17439;48.092;11.842;2023-01-29T07:12:09;96305.34;;;2.79;71.73
30682;BME280;17439;48.092;11.842;2023-01-29T07:14:35;96315.81;;;2.80;72.18
30682;BME280;17439;48.092;11.842;2023-01-29T07:17:02;96318.25;;;2.82;72.10
30682;BME280;17439;48.092;11.842;2023-01-29T07:19:29;96314.50;;;2.83;72.31
30682;BME280;17439;48.092;11.842;2023-01-29T07:21:55;96308.91;;;2.84;72.47
30682;BME280;17439;48.092;11.842;2023-01-29T07:24:22;96303.31;;;2.86;72.46
30682;BME280;17439;48.092;11.842;2023-01-29T07:26:49;96302.03;;;2.88;72.62
30682;BME280;17439;48.092;11.842;2023-01-29T07:29:15;96291.88;;;2.90;72.50
30682;BME280;17439;48.092;11.842;2023-01-29T07:31:42;96291.41;;;2.94;72.43
30682;BME280;17439;48.092;11.842;2023-01-29T07:34:09;96297.31;;;2.96;72.11
30682;BME280;17439;48.092;11.842;2023-01-29T07:36:35;96287.22;;;2.98;72.36
30682;BME280;17439;48.092;11.842;2023-01-29T07:39:02;96288.56;;;3.00;72.39
30682;BME280;17439;48.092;11.842;2023-01-29T07:41:28;96286.47;;;3.02;72.45
30682;BME280;17439;48.092;11.842;2023-01-29T07:43:58;96283.56;;;3.04;72.30
30682;BME280;17439;48.092;11.842;2023-01-29T07:46:24;96280.38;;;3.07;72.41
30682;BME280;17439;48.092;11.842;2023-01-29T07:48:51;96285.47;;;3.08;72.41
30682;BME280;17439;48.092;11.842;2023-01-29T07:51:18;96278.84;;;3.11;72.41
30682;BME280;17439;48.092;11.842;2023-01-29T07:53:44;96281.03;;;3.14;72.59
30682;BME280;17439;48.092;11.842;2023-01-29T07:56:11;96272.75;;;3.16;72.63
30682;BME280;17439;48.092;11.842;2023-01-29T07:58:37;96277.38;;;3.20;72.62
30682;BME280;17439;48.092;11.842;2023-01-29T08:01:05;96277.72;;;3.24;72.27
30682;BME280;17439;48.092;11.842;2023-01-29T08:03:32;96278.03;;;3.27;72.71
30682;BME280;17439;48.092;11.842;2023-01-29T08:05:59;96261.69;;;3.29;72.36
30682;BME280;17439;48.092;11.842;2023-01-29T08:08:25;96269.75;;;3.29;71.49
30682;BME280;17439;48.092;11.842;2023-01-29T08:10:52;96265.78;;;3.32;71.67
30682;BME280;17439;48.092;11.842;2023-01-29T08:13:18;96266.81;;;3.31;70.52
30682;BME280;17439;48.092;11.842;2023-01-29T08:15:45;96270.09;;;3.33;70.84
30682;BME280;17439;48.092;11.842;2023-01-29T08:18:12;96274.38;;;3.34;71.46
30682;BME280;17439;48.092;11.842;2023-01-29T08:20:39;96267.06;;;3.29;70.93
30682;BME280;17439;48.092;11.842;2023-01-29T08:23:09;96264.25;;;3.36;71.76
30682;BME280;17439;48.092;11.842;2023-01-29T08:25:37;96259.50;;;3.43;72.83
30682;BME280;17439;48.092;11.842;2023-01-29T08:28:04;96270.63;;;3.52;72.81
30682;BME280;17439;48.092;11.842;2023-01-29T08:30:32;96280.94;;;3.60;72.41
30682;BME280;17439;48.092;11.842;2023-01-29T08:32:59;96282.66;;;3.66;72.46
30682;BME280;17439;48.092;11.842;2023-01-29T08:35:26;96274.09;;;3.69;71.34
30682;BME280;17439;48.092;11.842;2023-01-29T08:37:57;96284.66;;;3.76;71.36
30682;BME280;17439;48.092;11.842;2023-01-29T08:40:26;96275.53;;;3.77;69.28
30682;BME280;17439;48.092;11.842;2023-01-29T08:42:59;96288.13;;;3.76;63.71
30682;BME280;17439;48.092;11.842;2023-01-29T08:45:29;96297.63;;;3.84;69.88
30682;BME280;17439;48.092;11.842;2023-01-29T08:47:55;96297.72;;;3.89;68.52
30682;BME280;17439;48.092;11.842;2023-01-29T08:50:22;96311.94;;;3.90;68.11
30682;BME280;17439;48.092;11.842;2023-01-29T08:52:49;96310.38;;;3.94;66.94
30682;BME280;17439;48.092;11.842;2023-01-29T08:55:16;96314.69;;;3.95;65.84
30682;BME280;17439;48.092;11.842;2023-01-29T08:57:43;96312.25;;;3.93;64.46
30682;BME280;17439;48.092;11.842;2023-01-29T09:00:10;96316.47;;;3.89;64.95
30682;BME280;17439;48.092;11.842;2023-01-29T09:02:37;96323.41;;;3.85;65.76
30682;BME280;17439;48.092;11.842;2023-01-29T09:05:04;96316.66;;;3.83;66.46
30682;BME280;17439;48.092;11.842;2023-01-29T09:07:30;96317.47;;;3.83;67.28
30682;BME280;17439;48.092;11.842;2023-01-29T09:09:57;96326.59;;;3.82;67.80
30682;BME280;17439;48.092;11.842;2023-01-29T09:12:24;96323.16;;;3.87;68.05
30682;BME280;17439;48.092;11.842;2023-01-29T09:14:50;96324.78;;;3.88;67.76
30682;BME280;17439;48.092;11.842;2023-01-29T09:17:17;96320.25;;;3.88;67.35
30682;BME280;17439;48.092;11.842;2023-01-29T09:19:44;96331.53;;;3.90;67.64
30682;BME280;17439;48.092;11.842;2023-01-29T09:22:10;96329.66;;;3.91;67.23
30682;BME280;17439;48.092;11.842;2023-01-29T09:24:37;96328.59;;;3.92;67.48
30682;BME280;17439;48.092;11.842;2023-01-29T09:27:04;96339.66;;;3.95;68.20
30682;BME280;17439;48.092;11.842;2023-01-29T09:29:30;96341.84;;;3.98;68.99
30682;BME280;17439;48.092;11.842;2023-01-29T09:32:00;96344.59;;;4.04;69.20
30682;BME280;17439;48.092;11.842;2023-01-29T09:34:27;96344.09;;;4.07;69.07
30682;BME280;17439;48.092;11.842;2023-01-29T09:36:54;96348.16;;;4.09;68.64
30682;BME280;17439;48.092;11.842;2023-01-29T09:39:20;96346.84;;;4.12;68.65
30682;BME280;17439;48.092;11.842;2023-01-29T09:41:56;96359.22;;;4.13;65.33
30682;BME280;17439;48.092;11.842;2023-01-29T09:44:44;96358.16;;;4.14;64.39
30682;BME280;17439;48.092;11.842;2023-01-29T09:47:14;96359.53;;;4.16;67.93
30682;BME280;17439;48.092;11.842;2023-01-29T09:49:51;96362.78;;;4.18;64.59
30682;BME280;17439;48.092;11.842;2023-01-29T09:52:29;96361.97;;;4.18;60.55
30682;BME280;17439;48.092;11.842;2023-01-29T09:55:06;96362.53;;;4.20;64.74
30682;BME280;17439;48.092;11.842;2023-01-29T09:57:49;96359.88;;;4.20;64.55
30682;BME280;17439;48.092;11.842;2023-01-29T10:00:18;96363.09;;;4.22;68.70
30682;BME280;17439;48.092;11.842;2023-01-29T10:02:55;96361.47;;;4.21;68.80
30682;BME280;17439;48.092;11.842;2023-01-29T10:10:44;96356.09;;;4.21;64.46
30682;BME280;17439;48.092;11.842;2023-01-29T10:13:23;96354.50;;;4.20;66.00
30682;BME280;17439;48.092;11.842;2023-01-29T10:16:02;96362.44;;;4.15;64.26
30682;BME280;17439;48.092;11.842;2023-01-29T10:24:11;96347.59;;;4.29;66.01
30682;BME280;17439;48.092;11.842;2023-01-29T10:26:43;96354.56;;;4.25;66.16
30682;BME280;17439;48.092;11.842;2023-01-29T10:29:15;96350.41;;;4.17;63.62
30682;BME280;17439;48.092;11.842;2023-01-29T10:31:45;96348.72;;;4.11;65.41
30682;BME280;17439;48.092;11.842;2023-01-29T10:34:30;96346.97;;;4.00;61.28
30682;BME280;17439;48.092;11.842;2023-01-29T10:37:00;96338.34;;;3.98;66.25
30682;BME280;17439;48.092;11.842;2023-01-29T10:39:38;96339.34;;;3.92;66.19
30682;BME280;17439;48.092;11.842;2023-01-29T10:42:16;96326.16;;;3.90;65.22
30682;BME280;17439;48.092;11.842;2023-01-29T10:50:30;96340.31;;;3.86;63.57
30682;BME280;17439;48.092;11.842;2023-01-29T10:59:08;96338.00;;;3.94;68.00
30682;BME280;17439;48.092;11.842;2023-01-29T11:01:39;96328.66;;;3.97;68.44
30682;BME280;17439;48.092;11.842;2023-01-29T11:04:10;96330.31;;;3.98;66.34
30682;BME280;17439;48.092;11.842;2023-01-29T11:06:38;96318.00;;;4.02;68.79
30682;BME280;17439;48.092;11.842;2023-01-29T11:09:18;96323.94;;;4.04;65.81
30682;BME280;17439;48.092;11.842;2023-01-29T11:12:12;96322.31;;;4.03;64.67
30682;BME280;17439;48.092;11.842;2023-01-29T11:17:37;96318.75;;;3.97;66.77
30682;BME280;17439;48.092;11.842;2023-01-29T11:20:05;96313.22;;;4.04;68.00
30682;BME280;17439;48.092;11.842;2023-01-29T11:22:31;96315.66;;;4.06;68.46
30682;BME280;17439;48.092;11.842;2023-01-29T11:25:18;96308.66;;;4.05;65.16
30682;BME280;17439;48.092;11.842;2023-01-29T11:28:05;96318.91;;;4.08;66.00
30682;BME280;17439;48.092;11.842;2023-01-29T11:30:37;96310.28;;;4.06;65.91
30682;BME280;17439;48.092;11.842;2023-01-29T11:33:21;96312.97;;;4.06;67.33
30682;BME280;17439;48.092;11.842;2023-01-29T11:35:49;96305.72;;;4.06;67.73
30682;BME280;17439;48.092;11.842;2023-01-29T11:40:42;96309.53;;;4.10;67.23
30682;BME280;17439;48.092;11.842;2023-01-29T11:43:18;96303.59;;;4.08;64.50
30682;BME280;17439;48.092;11.842;2023-01-29T11:45:47;96294.50;;;4.09;67.01
30682;BME280;17439;48.092;11.842;2023-01-29T11:48:17;96292.63;;;4.10;66.63
30682;BME280;17439;48.092;11.842;2023-01-29T11:51:11;96294.50;;;4.09;63.28
30682;BME280;17439;48.092;11.842;2023-01-29T11:53:51;96284.88;;;4.13;64.98
30682;BME280;17439;48.092;11.842;2023-01-29T11:56:21;96275.53;;;4.16;68.15
30682;BME280;17439;48.092;11.842;2023-01-29T11:58:49;96265.34;;;4.18;68.04
30682;BME280;17439;48.092;11.842;2023-01-29T12:01:29;96252.50;;;4.20;62.78
30682;BME280;17439;48.092;11.842;2023-01-29T12:03:58;96234.81;;;4.24;68.02
30682;BME280;17439;48.092;11.842;2023-01-29T12:06:34;96234.81;;;4.24;62.51
30682;BME280;17439;48.092;11.842;2023-01-29T12:09:09;96224.31;;;4.23;61.74
30682;BME280;17439;48.092;11.842;2023-01-29T12:11:36;96216.56;;;4.26;66.60
30682;BME280;17439;48.092;11.842;2023-01-29T12:14:05;96206.66;;;4.27;65.14
30682;BME280;17439;48.092;11.842;2023-01-29T12:16:57;96202.59;;;4.24;58.71
30682;BME280;17439;48.092;11.842;2023-01-29T12:19:42;96196.47;;;4.29;60.53
30682;BME280;17439;48.092;11.842;2023-01-29T12:24:49;96195.09;;;4.26;58.82
30682;BME280;17439;48.092;11.842;2023-01-29T12:30:16;96201.59;;;4.30;61.27
30682;BME280;17439;48.092;11.842;2023-01-29T12:35:53;96216.75;;;4.42;62.58
30682;BME280;17439;48.092;11.842;2023-01-29T12:38:22;96211.66;;;4.45;67.02
30682;BME280;17439;48.092;11.842;2023-01-29T12:40:52;96224.84;;;4.47;65.18
30682;BME280;17439;48.092;11.842;2023-01-29T12:43:40;96217.38;;;4.49;63.25
30682;BME280;17439;48.092;11.842;2023-01-29T12:46:21;96222.16;;;4.47;59.54
30682;BME280;17439;48.092;11.842;2023-01-29T12:48:51;96210.38;;;4.48;64.87
30682;BME280;17439;48.092;11.842;2023-01-29T12:51:23;96207.69;;;4.48;64.91
30682;BME280;17439;48.092;11.842;2023-01-29T12:54:11;96201.75;;;4.46;65.94
30682;BME280;17439;48.092;11.842;2023-01-29T12:56:49;96194.50;;;4.46;63.43
30682;BME280;17439;48.092;11.842;2023-01-29T12:59:31;96184.53;;;4.42;61.11
30682;BME280;17439;48.092;11.842;2023-01-29T13:02:31;96185.88;;;4.39;61.55
30682;BME280;17439;48.092;11.842;2023-01-29T13:05:03;96181.81;;;4.36;63.57
30682;BME280;17439;48.092;11.842;2023-01-29T13:07:37;96176.69;;;4.35;63.83
30682;BME280;17439;48.092;11.842;2023-01-29T13:10:12;96173.69;;;4.31;60.79
30682;BME280;17439;48.092;11.842;2023-01-29T13:12:47;96165.91;;;4.30;60.96
30682;BME280;17439;48.092;11.842;2023-01-29T13:15:24;96164.81;;;4.31;62.27
30682;BME280;17439;48.092;11.842;2023-01-29T13:17:57;96149.53;;;4.31;63.83
30682;BME280;17439;48.092;11.842;2023-01-29T13:20:29;96149.53;;;4.31;63.30
30682;BME280;17439;48.092;11.842;2023-01-29T13:23:03;96150.09;;;4.33;63.98
30682;BME280;17439;48.092;11.842;2023-01-29T13:25:31;96145.00;;;4.37;66.96
30682;BME280;17439;48.092;11.842;2023-01-29T13:27:57;96139.97;;;4.41;67.23
30682;BME280;17439;48.092;11.842;2023-01-29T13:30:31;96135.94;;;4.43;65.18
30682;BME280;17439;48.092;11.842;2023-01-29T13:33:00;96139.50;;;4.49;66.70
30682;BME280;17439;48.092;11.842;2023-01-29T13:35:31;96130.63;;;4.48;65.82
30682;BME280;17439;48.092;11.842;2023-01-29T13:37:58;96126.63;;;4.51;66.04
30682;BME280;17439;48.092;11.842;2023-01-29T13:40:28;96123.13;;;4.50;63.73
30682;BME280;17439;48.092;11.842;2023-01-29T13:42:56;96134.41;;;4.52;65.55
30682;BME280;17439;48.092;11.842;2023-01-29T13:45:35;96135.47;;;4.51;65.81
30682;BME280;17439;48.092;11.842;2023-01-29T13:48:28;96136.50;;;4.45;60.63
30682;BME280;17439;48.092;11.842;2023-01-29T13:50:59;96127.59;;;4.40;60.75
30682;BME280;17439;48.092;11.842;2023-01-29T13:53:36;96124.03;;;4.34;59.96
30682;BME280;17439;48.092;11.842;2023-01-29T13:59:01;96119.44;;;4.29;64.81
30682;BME280;17439;48.092;11.842;2023-01-29T14:06:56;96117.84;;;4.28;63.16
30682;BME280;17439;48.092;11.842;2023-01-29T14:12:03;96104.91;;;4.25;66.01
30682;BME280;17439;48.092;11.842;2023-01-29T14:14:50;96104.38;;;4.23;62.81
30682;BME280;17439;48.092;11.842;2023-01-29T14:17:25;96109.16;;;4.21;65.08
30682;BME280;17439;48.092;11.842;2023-01-29T14:20:02;96105.63;;;4.15;62.14
30682;BME280;17439;48.092;11.842;2023-01-29T14:22:31;96105.88;;;4.14;64.67
30682;BME280;17439;48.092;11.842;2023-01-29T14:25:00;96097.97;;;4.02;59.15
30682;BME280;17439;48.092;11.842;2023-01-29T14:27:29;96112.78;;;4.05;64.72
30682;BME280;17439;48.092;11.842;2023-01-29T14:30:01;96123.47;;;3.99;62.86
30682;BME280;17439;48.092;11.842;2023-01-29T14:32:29;96123.72;;;3.98;64.98
30682;BME280;17439;48.092;11.842;2023-01-29T14:34:59;96125.00;;;3.95;63.28
30682;BME280;17439;48.092;11.842;2023-01-29T14:37:32;96122.28;;;3.90;63.77
30682;BME280;17439;48.092;11.842;2023-01-29T14:40:14;96134.31;;;3.88;61.99